Sao Joao da Mata, Brazil
Current Conditions -  °F | °C
As of 12:00 PM on Monday 24 Nov 2014 (Local Time) from SBGW Reporting Station
Broken Clouds Broken Clouds  
Wind Chill: 26°   Ceiling: 2000
Heat Index: 27°   Visibility: 4mi
Dew Point: 19°   Wind: 7mph
Humidity: 65%   Direction: 50°NE
Pressure: 30.03"   Gusts: NA
Location:  21.93°S, 45.93°W
Report Text: SBGW 241400Z 05006KT 7000 BKN020 BKN070 26/19 Q1017
Loading
Personal Weather Stations






























Interactive Weather Map New forecast layout! Learn more

10-Day Weather Forecast

Advertisements
Track Severe Weather on mobile